KHFF

Mackall AAF Airport

Camp Mackall, North Carolina, USA
METAR KHFF 181956Z AUTO 26006KT 10SM SCT110 18/09 A3006 RMK AO2 SLP194 T01800087 $
Observed Flight Rules
Dec-18 @ 19:56 UTC (28 minutes ago) Visual Flight Rules
Wind Visibility Clouds
260° at 6 knots 10 miles
  • Scattered at 11,000' AGL
Temperatures Readings
Current 18°C / 64°F
Dewpoint 9°C / 48°F
Humidity 56%
Altimeter 30.06" Hg
Pressure 1019.4 hPa
Elevation 115
METAR KHFF 181956Z AUTO 26006KT 10SM SCT110 18/09 A3006 RMK AO2 SLP194 T01800087 $
Observed Flight Rules
Dec-18 @ 19:56 UTC
(28 minutes ago)
VFR
Wind Visibility
260° at 6 knots 10 miles
Clouds
  • Scattered at 11,000' AGL
Temperature Dewpoint
18°C / 64°F 9°C / 48°F
Humidity Altimeter Pressure
56% 30.06" Hg 1019.4 hPa